sensor_id;sensor_type;location;lat;lon;timestamp;P1;durP1;ratioP1;P2;durP2;ratioP2
44222;SDS011;29895;48.804;9.386;2023-07-29T00:01:42;3.03;;;2.00;;
44222;SDS011;29895;48.804;9.386;2023-07-29T00:04:08;3.47;;;1.80;;
44222;SDS011;29895;48.804;9.386;2023-07-29T00:06:36;3.67;;;2.00;;
44222;SDS011;29895;48.804;9.386;2023-07-29T00:09:02;3.72;;;1.73;;
44222;SDS011;29895;48.804;9.386;2023-07-29T00:11:28;3.38;;;2.10;;
44222;SDS011;29895;48.804;9.386;2023-07-29T00:13:54;2.35;;;1.70;;
44222;SDS011;29895;48.804;9.386;2023-07-29T00:16:19;3.40;;;1.40;;
44222;SDS011;29895;48.804;9.386;2023-07-29T00:18:48;1.70;;;1.45;;
44222;SDS011;29895;48.804;9.386;2023-07-29T00:21:14;2.75;;;1.40;;
44222;SDS011;29895;48.804;9.386;2023-07-29T00:23:40;2.25;;;1.50;;
44222;SDS011;29895;48.804;9.386;2023-07-29T00:26:06;2.63;;;1.48;;
44222;SDS011;29895;48.804;9.386;2023-07-29T00:28:31;1.83;;;1.15;;
44222;SDS011;29895;48.804;9.386;2023-07-29T00:30:57;1.77;;;1.23;;
44222;SDS011;29895;48.804;9.386;2023-07-29T00:33:23;2.17;;;1.20;;
44222;SDS011;29895;48.804;9.386;2023-07-29T00:35:48;2.05;;;1.40;;
44222;SDS011;29895;48.804;9.386;2023-07-29T00:38:14;1.58;;;1.08;;
44222;SDS011;29895;48.804;9.386;2023-07-29T00:40:40;3.58;;;1.42;;
44222;SDS011;29895;48.804;9.386;2023-07-29T00:43:05;2.03;;;1.60;;
44222;SDS011;29895;48.804;9.386;2023-07-29T00:45:32;2.15;;;1.17;;
44222;SDS011;29895;48.804;9.386;2023-07-29T00:47:58;5.88;;;1.45;;
44222;SDS011;29895;48.804;9.386;2023-07-29T00:50:25;3.80;;;1.30;;
44222;SDS011;29895;48.804;9.386;2023-07-29T00:52:53;3.63;;;1.40;;
44222;SDS011;29895;48.804;9.386;2023-07-29T00:55:20;2.50;;;1.23;;
44222;SDS011;29895;48.804;9.386;2023-07-29T00:57:45;2.78;;;1.30;;
44222;SDS011;29895;48.804;9.386;2023-07-29T01:00:13;2.53;;;1.75;;
44222;SDS011;29895;48.804;9.386;2023-07-29T01:02:41;2.35;;;1.60;;
44222;SDS011;29895;48.804;9.386;2023-07-29T01:05:07;3.45;;;1.17;;
44222;SDS011;29895;48.804;9.386;2023-07-29T01:13:19;2.97;;;1.23;;
44222;SDS011;29895;48.804;9.386;2023-07-29T01:16:07;5.53;;;1.35;;
44222;SDS011;29895;48.804;9.386;2023-07-29T01:18:45;5.25;;;1.50;;
44222;SDS011;29895;48.804;9.386;2023-07-29T01:21:13;2.63;;;1.52;;
44222;SDS011;29895;48.804;9.386;2023-07-29T01:23:40;4.07;;;1.35;;
44222;SDS011;29895;48.804;9.386;2023-07-29T01:26:06;1.75;;;1.40;;
44222;SDS011;29895;48.804;9.386;2023-07-29T01:28:31;2.63;;;1.42;;
44222;SDS011;29895;48.804;9.386;2023-07-29T01:31:01;4.47;;;1.20;;
44222;SDS011;29895;48.804;9.386;2023-07-29T01:33:35;3.50;;;1.52;;
44222;SDS011;29895;48.804;9.386;2023-07-29T01:36:13;3.10;;;1.58;;
44222;SDS011;29895;48.804;9.386;2023-07-29T01:38:48;3.08;;;1.35;;
44222;SDS011;29895;48.804;9.386;2023-07-29T01:41:14;4.03;;;1.23;;
44222;SDS011;29895;48.804;9.386;2023-07-29T01:43:42;2.63;;;1.52;;
44222;SDS011;29895;48.804;9.386;2023-07-29T01:46:11;3.00;;;1.65;;
44222;SDS011;29895;48.804;9.386;2023-07-29T01:48:38;2.50;;;1.58;;
44222;SDS011;29895;48.804;9.386;2023-07-29T01:51:05;3.17;;;1.70;;
44222;SDS011;29895;48.804;9.386;2023-07-29T01:53:31;2.70;;;1.15;;
44222;SDS011;29895;48.804;9.386;2023-07-29T01:55:57;3.90;;;1.60;;
44222;SDS011;29895;48.804;9.386;2023-07-29T01:58:22;2.78;;;1.65;;
44222;SDS011;29895;48.804;9.386;2023-07-29T02:00:48;5.68;;;1.73;;
44222;SDS011;29895;48.804;9.386;2023-07-29T02:03:14;1.88;;;1.20;;
44222;SDS011;29895;48.804;9.386;2023-07-29T02:05:40;3.80;;;1.80;;
44222;SDS011;29895;48.804;9.386;2023-07-29T02:08:08;3.50;;;1.65;;
44222;SDS011;29895;48.804;9.386;2023-07-29T02:10:35;1.50;;;1.35;;
44222;SDS011;29895;48.804;9.386;2023-07-29T02:13:00;4.00;;;1.63;;
44222;SDS011;29895;48.804;9.386;2023-07-29T02:15:26;5.88;;;1.77;;
44222;SDS011;29895;48.804;9.386;2023-07-29T02:17:52;5.55;;;1.83;;
44222;SDS011;29895;48.804;9.386;2023-07-29T02:20:18;2.55;;;1.80;;
44222;SDS011;29895;48.804;9.386;2023-07-29T02:22:44;2.65;;;1.70;;
44222;SDS011;29895;48.804;9.386;2023-07-29T02:25:10;3.83;;;1.92;;
44222;SDS011;29895;48.804;9.386;2023-07-29T02:27:35;2.35;;;1.42;;
44222;SDS011;29895;48.804;9.386;2023-07-29T02:30:01;1.85;;;1.50;;
44222;SDS011;29895;48.804;9.386;2023-07-29T02:32:27;2.78;;;1.60;;
44222;SDS011;29895;48.804;9.386;2023-07-29T02:34:53;2.50;;;1.52;;
44222;SDS011;29895;48.804;9.386;2023-07-29T02:37:19;1.98;;;1.40;;
44222;SDS011;29895;48.804;9.386;2023-07-29T02:39:45;2.65;;;1.58;;
44222;SDS011;29895;48.804;9.386;2023-07-29T02:42:11;4.47;;;1.30;;
44222;SDS011;29895;48.804;9.386;2023-07-29T02:44:36;4.25;;;1.40;;
44222;SDS011;29895;48.804;9.386;2023-07-29T02:47:02;2.08;;;1.30;;
44222;SDS011;29895;48.804;9.386;2023-07-29T02:49:28;2.13;;;1.60;;
44222;SDS011;29895;48.804;9.386;2023-07-29T02:51:54;3.17;;;1.83;;
44222;SDS011;29895;48.804;9.386;2023-07-29T02:54:20;3.38;;;1.42;;
44222;SDS011;29895;48.804;9.386;2023-07-29T02:56:45;2.95;;;1.80;;
44222;SDS011;29895;48.804;9.386;2023-07-29T02:59:11;4.50;;;1.70;;
44222;SDS011;29895;48.804;9.386;2023-07-29T03:01:37;2.85;;;1.58;;
44222;SDS011;29895;48.804;9.386;2023-07-29T03:04:02;2.78;;;1.58;;
44222;SDS011;29895;48.804;9.386;2023-07-29T03:06:28;3.60;;;1.73;;
44222;SDS011;29895;48.804;9.386;2023-07-29T03:08:54;3.58;;;2.58;;
44222;SDS011;29895;48.804;9.386;2023-07-29T03:11:20;4.13;;;2.70;;
44222;SDS011;29895;48.804;9.386;2023-07-29T03:13:45;3.00;;;1.92;;
44222;SDS011;29895;48.804;9.386;2023-07-29T03:16:12;3.60;;;1.77;;
44222;SDS011;29895;48.804;9.386;2023-07-29T03:18:42;2.65;;;1.90;;
44222;SDS011;29895;48.804;9.386;2023-07-29T03:21:09;2.55;;;1.92;;
44222;SDS011;29895;48.804;9.386;2023-07-29T03:23:35;5.10;;;2.00;;
44222;SDS011;29895;48.804;9.386;2023-07-29T03:26:02;4.68;;;1.85;;
44222;SDS011;29895;48.804;9.386;2023-07-29T03:28:46;4.97;;;2.05;;
44222;SDS011;29895;48.804;9.386;2023-07-29T03:31:12;4.03;;;1.88;;
44222;SDS011;29895;48.804;9.386;2023-07-29T03:33:38;4.28;;;2.10;;
44222;SDS011;29895;48.804;9.386;2023-07-29T03:36:03;2.90;;;1.50;;
44222;SDS011;29895;48.804;9.386;2023-07-29T03:38:29;2.30;;;1.80;;
44222;SDS011;29895;48.804;9.386;2023-07-29T03:40:55;2.50;;;1.92;;
44222;SDS011;29895;48.804;9.386;2023-07-29T03:43:21;3.25;;;2.17;;
44222;SDS011;29895;48.804;9.386;2023-07-29T03:45:47;2.20;;;1.85;;
44222;SDS011;29895;48.804;9.386;2023-07-29T03:48:12;2.92;;;2.10;;
44222;SDS011;29895;48.804;9.386;2023-07-29T03:50:38;5.05;;;2.20;;
44222;SDS011;29895;48.804;9.386;2023-07-29T03:53:04;2.80;;;2.00;;
44222;SDS011;29895;48.804;9.386;2023-07-29T03:55:30;3.83;;;1.80;;
44222;SDS011;29895;48.804;9.386;2023-07-29T03:57:57;7.05;;;2.13;;
44222;SDS011;29895;48.804;9.386;2023-07-29T04:00:26;5.25;;;2.42;;
44222;SDS011;29895;48.804;9.386;2023-07-29T04:02:52;2.92;;;1.92;;
44222;SDS011;29895;48.804;9.386;2023-07-29T04:05:18;3.50;;;2.55;;
44222;SDS011;29895;48.804;9.386;2023-07-29T04:07:44;3.05;;;2.03;;
44222;SDS011;29895;48.804;9.386;2023-07-29T04:10:10;4.60;;;1.90;;
44222;SDS011;29895;48.804;9.386;2023-07-29T04:12:36;4.63;;;1.90;;
44222;SDS011;29895;48.804;9.386;2023-07-29T04:15:02;4.82;;;2.08;;
44222;SDS011;29895;48.804;9.386;2023-07-29T04:17:28;3.78;;;2.25;;
44222;SDS011;29895;48.804;9.386;2023-07-29T04:19:54;5.85;;;2.22;;
44222;SDS011;29895;48.804;9.386;2023-07-29T04:22:20;3.50;;;2.13;;
44222;SDS011;29895;48.804;9.386;2023-07-29T04:24:46;3.58;;;1.88;;
44222;SDS011;29895;48.804;9.386;2023-07-29T04:27:11;5.20;;;2.80;;
44222;SDS011;29895;48.804;9.386;2023-07-29T04:29:37;2.92;;;1.95;;
44222;SDS011;29895;48.804;9.386;2023-07-29T04:32:03;7.03;;;2.92;;
44222;SDS011;29895;48.804;9.386;2023-07-29T04:34:29;6.78;;;3.03;;
44222;SDS011;29895;48.804;9.386;2023-07-29T04:36:56;10.57;;;2.88;;
44222;SDS011;29895;48.804;9.386;2023-07-29T04:39:21;6.85;;;2.63;;
44222;SDS011;29895;48.804;9.386;2023-07-29T04:41:47;7.18;;;3.08;;
44222;SDS011;29895;48.804;9.386;2023-07-29T04:44:13;8.02;;;2.97;;
44222;SDS011;29895;48.804;9.386;2023-07-29T04:46:38;5.88;;;2.78;;
44222;SDS011;29895;48.804;9.386;2023-07-29T04:49:04;6.00;;;2.53;;
44222;SDS011;29895;48.804;9.386;2023-07-29T04:51:31;5.82;;;2.38;;
44222;SDS011;29895;48.804;9.386;2023-07-29T04:53:57;6.85;;;3.03;;
44222;SDS011;29895;48.804;9.386;2023-07-29T04:56:23;7.20;;;2.75;;
44222;SDS011;29895;48.804;9.386;2023-07-29T04:58:49;6.68;;;2.85;;
44222;SDS011;29895;48.804;9.386;2023-07-29T05:01:15;7.05;;;2.95;;
44222;SDS011;29895;48.804;9.386;2023-07-29T05:03:40;5.05;;;2.92;;
44222;SDS011;29895;48.804;9.386;2023-07-29T05:06:06;7.10;;;3.38;;
44222;SDS011;29895;48.804;9.386;2023-07-29T05:08:31;6.05;;;3.10;;
44222;SDS011;29895;48.804;9.386;2023-07-29T05:10:57;8.15;;;3.60;;
44222;SDS011;29895;48.804;9.386;2023-07-29T05:13:23;6.63;;;3.40;;
44222;SDS011;29895;48.804;9.386;2023-07-29T05:15:49;5.85;;;4.40;;
44222;SDS011;29895;48.804;9.386;2023-07-29T05:18:15;8.13;;;4.20;;
44222;SDS011;29895;48.804;9.386;2023-07-29T05:20:41;5.40;;;3.75;;
44222;SDS011;29895;48.804;9.386;2023-07-29T05:23:07;6.95;;;3.60;;
44222;SDS011;29895;48.804;9.386;2023-07-29T05:25:33;6.00;;;3.40;;
44222;SDS011;29895;48.804;9.386;2023-07-29T05:28:02;7.57;;;4.03;;
44222;SDS011;29895;48.804;9.386;2023-07-29T05:30:28;5.90;;;3.63;;
44222;SDS011;29895;48.804;9.386;2023-07-29T05:32:59;12.45;;;3.63;;
44222;SDS011;29895;48.804;9.386;2023-07-29T05:35:25;8.05;;;3.40;;
44222;SDS011;29895;48.804;9.386;2023-07-29T05:37:51;12.90;;;3.45;;
44222;SDS011;29895;48.804;9.386;2023-07-29T05:40:17;6.93;;;3.10;;
44222;SDS011;29895;48.804;9.386;2023-07-29T05:42:43;6.53;;;3.35;;
44222;SDS011;29895;48.804;9.386;2023-07-29T05:45:10;4.38;;;3.33;;
44222;SDS011;29895;48.804;9.386;2023-07-29T05:47:36;6.70;;;3.15;;
44222;SDS011;29895;48.804;9.386;2023-07-29T05:50:02;4.97;;;3.05;;
44222;SDS011;29895;48.804;9.386;2023-07-29T05:52:29;6.07;;;2.92;;
44222;SDS011;29895;48.804;9.386;2023-07-29T05:54:58;10.38;;;4.70;;
44222;SDS011;29895;48.804;9.386;2023-07-29T05:57:24;5.20;;;3.67;;
44222;SDS011;29895;48.804;9.386;2023-07-29T05:59:50;4.22;;;3.08;;
44222;SDS011;29895;48.804;9.386;2023-07-29T06:02:15;4.88;;;2.90;;
44222;SDS011;29895;48.804;9.386;2023-07-29T06:04:41;6.60;;;3.20;;
44222;SDS011;29895;48.804;9.386;2023-07-29T06:07:07;7.03;;;2.55;;
44222;SDS011;29895;48.804;9.386;2023-07-29T06:09:32;6.10;;;2.45;;
44222;SDS011;29895;48.804;9.386;2023-07-29T06:11:58;8.63;;;3.10;;
44222;SDS011;29895;48.804;9.386;2023-07-29T06:14:24;4.32;;;2.55;;
44222;SDS011;29895;48.804;9.386;2023-07-29T06:16:49;5.78;;;2.03;;
44222;SDS011;29895;48.804;9.386;2023-07-29T06:19:15;5.22;;;2.03;;
44222;SDS011;29895;48.804;9.386;2023-07-29T06:21:41;5.22;;;2.10;;
44222;SDS011;29895;48.804;9.386;2023-07-29T06:24:07;4.80;;;2.67;;
44222;SDS011;29895;48.804;9.386;2023-07-29T06:26:33;4.28;;;1.90;;
44222;SDS011;29895;48.804;9.386;2023-07-29T06:28:58;4.40;;;1.50;;
44222;SDS011;29895;48.804;9.386;2023-07-29T06:31:24;6.13;;;1.98;;
44222;SDS011;29895;48.804;9.386;2023-07-29T06:33:50;3.13;;;1.65;;
44222;SDS011;29895;48.804;9.386;2023-07-29T06:36:15;2.88;;;1.80;;
44222;SDS011;29895;48.804;9.386;2023-07-29T06:38:41;2.42;;;1.50;;
44222;SDS011;29895;48.804;9.386;2023-07-29T06:41:07;3.53;;;1.50;;
44222;SDS011;29895;48.804;9.386;2023-07-29T06:43:32;2.92;;;1.45;;
44222;SDS011;29895;48.804;9.386;2023-07-29T06:45:58;2.38;;;1.50;;
44222;SDS011;29895;48.804;9.386;2023-07-29T06:48:24;4.20;;;1.73;;
44222;SDS011;29895;48.804;9.386;2023-07-29T06:50:50;6.13;;;2.10;;
44222;SDS011;29895;48.804;9.386;2023-07-29T06:53:16;5.15;;;2.10;;
44222;SDS011;29895;48.804;9.386;2023-07-29T06:55:42;6.35;;;4.43;;
44222;SDS011;29895;48.804;9.386;2023-07-29T06:58:08;5.47;;;2.13;;
44222;SDS011;29895;48.804;9.386;2023-07-29T07:00:34;3.92;;;2.45;;
44222;SDS011;29895;48.804;9.386;2023-07-29T07:03:00;3.38;;;2.10;;
44222;SDS011;29895;48.804;9.386;2023-07-29T07:05:26;2.75;;;1.85;;
44222;SDS011;29895;48.804;9.386;2023-07-29T07:07:51;4.95;;;2.10;;
44222;SDS011;29895;48.804;9.386;2023-07-29T07:10:17;4.80;;;2.00;;
44222;SDS011;29895;48.804;9.386;2023-07-29T07:12:43;6.68;;;2.83;;
44222;SDS011;29895;48.804;9.386;2023-07-29T07:15:09;5.10;;;2.85;;
44222;SDS011;29895;48.804;9.386;2023-07-29T07:17:35;5.22;;;2.33;;
44222;SDS011;29895;48.804;9.386;2023-07-29T07:20:00;5.72;;;2.65;;
44222;SDS011;29895;48.804;9.386;2023-07-29T07:22:26;6.05;;;2.33;;
44222;SDS011;29895;48.804;9.386;2023-07-29T07:24:52;6.03;;;3.10;;
44222;SDS011;29895;48.804;9.386;2023-07-29T07:27:17;6.22;;;2.28;;
44222;SDS011;29895;48.804;9.386;2023-07-29T07:29:43;4.38;;;2.30;;
44222;SDS011;29895;48.804;9.386;2023-07-29T07:32:09;2.58;;;2.05;;
44222;SDS011;29895;48.804;9.386;2023-07-29T07:34:34;5.13;;;2.97;;
44222;SDS011;29895;48.804;9.386;2023-07-29T07:37:00;5.03;;;2.50;;
44222;SDS011;29895;48.804;9.386;2023-07-29T07:39:26;9.18;;;3.53;;
44222;SDS011;29895;48.804;9.386;2023-07-29T07:41:52;5.88;;;2.78;;
44222;SDS011;29895;48.804;9.386;2023-07-29T07:44:18;5.63;;;2.83;;
44222;SDS011;29895;48.804;9.386;2023-07-29T07:46:44;4.85;;;2.70;;
44222;SDS011;29895;48.804;9.386;2023-07-29T07:49:10;4.25;;;2.42;;
44222;SDS011;29895;48.804;9.386;2023-07-29T07:51:37;4.45;;;2.53;;
44222;SDS011;29895;48.804;9.386;2023-07-29T07:54:04;3.65;;;2.42;;
44222;SDS011;29895;48.804;9.386;2023-07-29T07:56:29;5.47;;;2.58;;
44222;SDS011;29895;48.804;9.386;2023-07-29T07:58:55;6.72;;;2.58;;
44222;SDS011;29895;48.804;9.386;2023-07-29T08:01:21;3.75;;;2.30;;
44222;SDS011;29895;48.804;9.386;2023-07-29T08:03:46;3.88;;;2.00;;
44222;SDS011;29895;48.804;9.386;2023-07-29T08:06:12;3.92;;;2.20;;
44222;SDS011;29895;48.804;9.386;2023-07-29T08:08:37;4.68;;;2.13;;
44222;SDS011;29895;48.804;9.386;2023-07-29T08:11:03;3.90;;;2.40;;
44222;SDS011;29895;48.804;9.386;2023-07-29T08:13:29;3.40;;;1.73;;
44222;SDS011;29895;48.804;9.386;2023-07-29T08:15:54;2.42;;;1.17;;
44222;SDS011;29895;48.804;9.386;2023-07-29T08:18:20;2.85;;;1.20;;
44222;SDS011;29895;48.804;9.386;2023-07-29T08:20:56;2.70;;;1.60;;
44222;SDS011;29895;48.804;9.386;2023-07-29T08:23:24;4.07;;;1.40;;
44222;SDS011;29895;48.804;9.386;2023-07-29T08:25:51;3.55;;;1.67;;
44222;SDS011;29895;48.804;9.386;2023-07-29T08:28:18;5.05;;;1.90;;
44222;SDS011;29895;48.804;9.386;2023-07-29T08:30:44;3.13;;;1.90;;
44222;SDS011;29895;48.804;9.386;2023-07-29T08:33:09;2.47;;;1.60;;
44222;SDS011;29895;48.804;9.386;2023-07-29T08:35:35;1.98;;;1.55;;
44222;SDS011;29895;48.804;9.386;2023-07-29T08:38:01;2.63;;;1.77;;
44222;SDS011;29895;48.804;9.386;2023-07-29T08:40:28;5.88;;;1.50;;
44222;SDS011;29895;48.804;9.386;2023-07-29T08:42:56;5.72;;;1.60;;
44222;SDS011;29895;48.804;9.386;2023-07-29T08:45:27;3.67;;;1.48;;
44222;SDS011;29895;48.804;9.386;2023-07-29T08:47:56;3.63;;;1.90;;
44222;SDS011;29895;48.804;9.386;2023-07-29T08:50:24;2.60;;;1.63;;
44222;SDS011;29895;48.804;9.386;2023-07-29T08:52:50;3.67;;;1.80;;
44222;SDS011;29895;48.804;9.386;2023-07-29T08:55:18;6.45;;;1.60;;
44222;SDS011;29895;48.804;9.386;2023-07-29T08:57:44;2.40;;;1.55;;
44222;SDS011;29895;48.804;9.386;2023-07-29T09:00:10;4.85;;;1.77;;
44222;SDS011;29895;48.804;9.386;2023-07-29T09:02:37;3.60;;;1.80;;
44222;SDS011;29895;48.804;9.386;2023-07-29T09:05:03;4.47;;;1.42;;
44222;SDS011;29895;48.804;9.386;2023-07-29T09:07:30;4.30;;;2.42;;
44222;SDS011;29895;48.804;9.386;2023-07-29T09:09:58;2.55;;;1.90;;
44222;SDS011;29895;48.804;9.386;2023-07-29T09:12:23;4.07;;;1.83;;
44222;SDS011;29895;48.804;9.386;2023-07-29T09:14:52;3.55;;;1.80;;
44222;SDS011;29895;48.804;9.386;2023-07-29T09:17:19;4.38;;;1.70;;
44222;SDS011;29895;48.804;9.386;2023-07-29T09:19:50;5.38;;;1.45;;
44222;SDS011;29895;48.804;9.386;2023-07-29T09:22:20;4.50;;;2.00;;
44222;SDS011;29895;48.804;9.386;2023-07-29T09:24:48;5.85;;;1.90;;
44222;SDS011;29895;48.804;9.386;2023-07-29T09:27:32;2.53;;;1.70;;
44222;SDS011;29895;48.804;9.386;2023-07-29T09:30:03;5.85;;;2.08;;
44222;SDS011;29895;48.804;9.386;2023-07-29T09:32:30;4.28;;;2.17;;
44222;SDS011;29895;48.804;9.386;2023-07-29T09:34:55;3.25;;;1.48;;
44222;SDS011;29895;48.804;9.386;2023-07-29T09:37:21;3.35;;;1.88;;
44222;SDS011;29895;48.804;9.386;2023-07-29T09:39:48;3.53;;;1.77;;
44222;SDS011;29895;48.804;9.386;2023-07-29T09:42:21;3.40;;;1.50;;
44222;SDS011;29895;48.804;9.386;2023-07-29T09:44:50;3.90;;;1.80;;
44222;SDS011;29895;48.804;9.386;2023-07-29T09:47:19;4.03;;;1.98;;
44222;SDS011;29895;48.804;9.386;2023-07-29T09:49:46;4.03;;;2.05;;
44222;SDS011;29895;48.804;9.386;2023-07-29T09:52:13;2.20;;;1.90;;
44222;SDS011;29895;48.804;9.386;2023-07-29T09:54:41;3.95;;;1.70;;
44222;SDS011;29895;48.804;9.386;2023-07-29T09:57:09;3.08;;;1.60;;
44222;SDS011;29895;48.804;9.386;2023-07-29T09:59:54;4.60;;;1.90;;
44222;SDS011;29895;48.804;9.386;2023-07-29T10:02:20;2.83;;;1.63;;
44222;SDS011;29895;48.804;9.386;2023-07-29T10:04:46;2.28;;;1.63;;
44222;SDS011;29895;48.804;9.386;2023-07-29T10:07:12;2.67;;;1.70;;
44222;SDS011;29895;48.804;9.386;2023-07-29T10:09:39;2.92;;;1.70;;
44222;SDS011;29895;48.804;9.386;2023-07-29T10:12:05;4.82;;;1.67;;
44222;SDS011;29895;48.804;9.386;2023-07-29T10:14:32;4.22;;;1.80;;
44222;SDS011;29895;48.804;9.386;2023-07-29T10:16:58;2.42;;;1.70;;
44222;SDS011;29895;48.804;9.386;2023-07-29T10:19:25;2.72;;;1.73;;
44222;SDS011;29895;48.804;9.386;2023-07-29T10:21:52;2.20;;;1.92;;
44222;SDS011;29895;48.804;9.386;2023-07-29T10:24:22;3.45;;;1.98;;
44222;SDS011;29895;48.804;9.386;2023-07-29T10:26:54;2.58;;;1.40;;
44222;SDS011;29895;48.804;9.386;2023-07-29T10:29:23;2.63;;;1.58;;
44222;SDS011;29895;48.804;9.386;2023-07-29T10:31:54;3.42;;;1.60;;
44222;SDS011;29895;48.804;9.386;2023-07-29T10:36:48;2.08;;;1.67;;
44222;SDS011;29895;48.804;9.386;2023-07-29T10:39:14;4.63;;;1.92;;
44222;SDS011;29895;48.804;9.386;2023-07-29T10:47:15;5.15;;;1.40;;
44222;SDS011;29895;48.804;9.386;2023-07-29T10:49:46;5.15;;;1.50;;
44222;SDS011;29895;48.804;9.386;2023-07-29T10:52:14;7.35;;;2.25;;
44222;SDS011;29895;48.804;9.386;2023-07-29T10:54:45;5.18;;;2.03;;
44222;SDS011;29895;48.804;9.386;2023-07-29T10:57:34;7.68;;;2.28;;
44222;SDS011;29895;48.804;9.386;2023-07-29T11:00:06;7.20;;;2.33;;
44222;SDS011;29895;48.804;9.386;2023-07-29T11:02:34;10.80;;;2.20;;
44222;SDS011;29895;48.804;9.386;2023-07-29T11:05:07;4.82;;;1.48;;
44222;SDS011;29895;48.804;9.386;2023-07-29T11:07:45;4.55;;;1.77;;
44222;SDS011;29895;48.804;9.386;2023-07-29T11:10:12;7.18;;;1.77;;
44222;SDS011;29895;48.804;9.386;2023-07-29T11:17:38;4.70;;;1.33;;
44222;SDS011;29895;48.804;9.386;2023-07-29T11:20:19;1.60;;;1.30;;
44222;SDS011;29895;48.804;9.386;2023-07-29T11:22:49;1.58;;;1.25;;
44222;SDS011;29895;48.804;9.386;2023-07-29T11:25:16;1.50;;;1.10;;
44222;SDS011;29895;48.804;9.386;2023-07-29T11:27:43;2.13;;;1.60;;
44222;SDS011;29895;48.804;9.386;2023-07-29T11:30:09;3.17;;;1.30;;
44222;SDS011;29895;48.804;9.386;2023-07-29T11:32:37;2.35;;;1.48;;
44222;SDS011;29895;48.804;9.386;2023-07-29T11:35:04;2.72;;;1.17;;
44222;SDS011;29895;48.804;9.386;2023-07-29T11:37:38;1.90;;;1.02;;
44222;SDS011;29895;48.804;9.386;2023-07-29T11:40:04;1.63;;;1.30;;
44222;SDS011;29895;48.804;9.386;2023-07-29T11:42:32;2.67;;;1.40;;
44222;SDS011;29895;48.804;9.386;2023-07-29T11:45:01;3.45;;;1.50;;
44222;SDS011;29895;48.804;9.386;2023-07-29T11:47:28;2.40;;;1.17;;
44222;SDS011;29895;48.804;9.386;2023-07-29T11:49:57;1.65;;;1.40;;
44222;SDS011;29895;48.804;9.386;2023-07-29T11:52:25;1.75;;;1.33;;
44222;SDS011;29895;48.804;9.386;2023-07-29T11:54:52;1.77;;;1.27;;
44222;SDS011;29895;48.804;9.386;2023-07-29T11:57:18;2.55;;;1.38;;
44222;SDS011;29895;48.804;9.386;2023-07-29T11:59:45;1.80;;;1.38;;
44222;SDS011;29895;48.804;9.386;2023-07-29T12:02:12;1.92;;;1.08;;
44222;SDS011;29895;48.804;9.386;2023-07-29T12:04:40;1.75;;;1.38;;
44222;SDS011;29895;48.804;9.386;2023-07-29T12:07:06;2.00;;;1.10;;
44222;SDS011;29895;48.804;9.386;2023-07-29T12:09:33;3.63;;;1.10;;
44222;SDS011;29895;48.804;9.386;2023-07-29T12:12:00;3.72;;;1.30;;
44222;SDS011;29895;48.804;9.386;2023-07-29T12:14:30;1.58;;;1.20;;
44222;SDS011;29895;48.804;9.386;2023-07-29T12:16:56;1.73;;;1.50;;
44222;SDS011;29895;48.804;9.386;2023-07-29T12:19:36;1.45;;;1.35;;
44222;SDS011;29895;48.804;9.386;2023-07-29T12:22:03;2.22;;;1.45;;
44222;SDS011;29895;48.804;9.386;2023-07-29T12:24:30;3.45;;;1.27;;
44222;SDS011;29895;48.804;9.386;2023-07-29T12:26:56;2.83;;;1.40;;
44222;SDS011;29895;48.804;9.386;2023-07-29T12:29:22;3.10;;;1.27;;
44222;SDS011;29895;48.804;9.386;2023-07-29T12:31:49;2.03;;;1.55;;
44222;SDS011;29895;48.804;9.386;2023-07-29T12:34:22;1.88;;;1.35;;
44222;SDS011;29895;48.804;9.386;2023-07-29T12:36:51;2.42;;;1.50;;
44222;SDS011;29895;48.804;9.386;2023-07-29T12:39:21;2.03;;;1.40;;
44222;SDS011;29895;48.804;9.386;2023-07-29T12:44:14;2.55;;;1.40;;
44222;SDS011;29895;48.804;9.386;2023-07-29T12:46:40;2.03;;;1.60;;
44222;SDS011;29895;48.804;9.386;2023-07-29T12:49:06;2.60;;;1.83;;
44222;SDS011;29895;48.804;9.386;2023-07-29T12:51:32;2.38;;;1.52;;
44222;SDS011;29895;48.804;9.386;2023-07-29T12:53:58;2.30;;;1.58;;
44222;SDS011;29895;48.804;9.386;2023-07-29T12:56:24;2.55;;;1.80;;
44222;SDS011;29895;48.804;9.386;2023-07-29T12:58:50;1.73;;;1.52;;
44222;SDS011;29895;48.804;9.386;2023-07-29T13:01:15;2.20;;;1.60;;
44222;SDS011;29895;48.804;9.386;2023-07-29T13:03:44;2.00;;;1.67;;
44222;SDS011;29895;48.804;9.386;2023-07-29T13:06:10;2.40;;;1.80;;
44222;SDS011;29895;48.804;9.386;2023-07-29T13:08:36;4.13;;;1.80;;
44222;SDS011;29895;48.804;9.386;2023-07-29T13:11:03;2.60;;;1.50;;
44222;SDS011;29895;48.804;9.386;2023-07-29T13:13:29;4.25;;;1.98;;
44222;SDS011;29895;48.804;9.386;2023-07-29T13:15:55;2.03;;;1.75;;
44222;SDS011;29895;48.804;9.386;2023-07-29T13:18:21;2.92;;;1.83;;
44222;SDS011;29895;48.804;9.386;2023-07-29T13:20:47;2.30;;;2.10;;
44222;SDS011;29895;48.804;9.386;2023-07-29T13:23:13;2.17;;;1.95;;
44222;SDS011;29895;48.804;9.386;2023-07-29T13:25:39;3.08;;;2.10;;
44222;SDS011;29895;48.804;9.386;2023-07-29T13:28:04;2.33;;;2.08;;
44222;SDS011;29895;48.804;9.386;2023-07-29T13:30:30;3.17;;;2.20;;
44222;SDS011;29895;48.804;9.386;2023-07-29T13:32:56;6.10;;;2.80;;
44222;SDS011;29895;48.804;9.386;2023-07-29T13:35:21;2.00;;;1.77;;
44222;SDS011;29895;48.804;9.386;2023-07-29T13:37:47;3.47;;;2.22;;
44222;SDS011;29895;48.804;9.386;2023-07-29T13:40:13;3.28;;;2.53;;
44222;SDS011;29895;48.804;9.386;2023-07-29T13:42:38;3.65;;;2.42;;
44222;SDS011;29895;48.804;9.386;2023-07-29T13:45:04;3.78;;;3.20;;
44222;SDS011;29895;48.804;9.386;2023-07-29T13:47:30;4.40;;;2.65;;
44222;SDS011;29895;48.804;9.386;2023-07-29T13:49:56;4.57;;;2.40;;
44222;SDS011;29895;48.804;9.386;2023-07-29T13:52:21;3.92;;;1.83;;
44222;SDS011;29895;48.804;9.386;2023-07-29T13:54:47;3.97;;;2.72;;
44222;SDS011;29895;48.804;9.386;2023-07-29T13:57:12;4.88;;;3.20;;
44222;SDS011;29895;48.804;9.386;2023-07-29T13:59:38;4.00;;;2.95;;
44222;SDS011;29895;48.804;9.386;2023-07-29T14:02:06;3.60;;;2.70;;
44222;SDS011;29895;48.804;9.386;2023-07-29T14:04:33;3.45;;;2.45;;
44222;SDS011;29895;48.804;9.386;2023-07-29T14:06:58;2.78;;;2.25;;
44222;SDS011;29895;48.804;9.386;2023-07-29T14:09:25;3.78;;;2.78;;
44222;SDS011;29895;48.804;9.386;2023-07-29T14:11:51;5.43;;;2.92;;
44222;SDS011;29895;48.804;9.386;2023-07-29T14:14:17;7.28;;;4.28;;
44222;SDS011;29895;48.804;9.386;2023-07-29T14:16:42;2.90;;;2.25;;
44222;SDS011;29895;48.804;9.386;2023-07-29T14:19:08;2.88;;;1.70;;
44222;SDS011;29895;48.804;9.386;2023-07-29T14:21:33;2.15;;;1.70;;
44222;SDS011;29895;48.804;9.386;2023-07-29T14:23:59;1.83;;;1.60;;
44222;SDS011;29895;48.804;9.386;2023-07-29T14:26:25;2.53;;;1.95;;
44222;SDS011;29895;48.804;9.386;2023-07-29T14:28:50;2.20;;;1.65;;
44222;SDS011;29895;48.804;9.386;2023-07-29T14:31:16;2.50;;;1.90;;
44222;SDS011;29895;48.804;9.386;2023-07-29T14:33:43;2.40;;;2.00;;
44222;SDS011;29895;48.804;9.386;2023-07-29T14:36:09;3.47;;;2.35;;
44222;SDS011;29895;48.804;9.386;2023-07-29T14:38:35;2.70;;;1.92;;
44222;SDS011;29895;48.804;9.386;2023-07-29T14:41:01;2.53;;;1.80;;
44222;SDS011;29895;48.804;9.386;2023-07-29T14:43:27;2.95;;;1.80;;
44222;SDS011;29895;48.804;9.386;2023-07-29T14:45:53;2.75;;;2.15;;
44222;SDS011;29895;48.804;9.386;2023-07-29T14:48:19;2.05;;;1.80;;
44222;SDS011;29895;48.804;9.386;2023-07-29T14:50:44;2.78;;;1.70;;
44222;SDS011;29895;48.804;9.386;2023-07-29T14:53:10;3.55;;;1.67;;
44222;SDS011;29895;48.804;9.386;2023-07-29T14:55:39;2.08;;;1.70;;
44222;SDS011;29895;48.804;9.386;2023-07-29T14:58:04;3.53;;;1.85;;
44222;SDS011;29895;48.804;9.386;2023-07-29T15:00:30;3.42;;;2.10;;
44222;SDS011;29895;48.804;9.386;2023-07-29T15:02:55;2.17;;;1.70;;
44222;SDS011;29895;48.804;9.386;2023-07-29T15:05:21;2.28;;;2.05;;
44222;SDS011;29895;48.804;9.386;2023-07-29T15:07:47;3.42;;;2.20;;